sensor_id;sensor_type;location;lat;lon;timestamp;P1;durP1;ratioP1;P2;durP2;ratioP2
9214;SDS011;4642;51.364;6.788;2022-10-31T00:01:13;11.37;;;4.47;;
9214;SDS011;4642;51.364;6.788;2022-10-31T00:03:41;9.60;;;4.87;;
9214;SDS011;4642;51.364;6.788;2022-10-31T00:06:07;11.77;;;5.03;;
9214;SDS011;4642;51.364;6.788;2022-10-31T00:08:32;9.80;;;5.07;;
9214;SDS011;4642;51.364;6.788;2022-10-31T00:10:58;11.43;;;5.27;;
9214;SDS011;4642;51.364;6.788;2022-10-31T00:13:23;13.77;;;4.40;;
9214;SDS011;4642;51.364;6.788;2022-10-31T00:15:49;15.53;;;5.23;;
9214;SDS011;4642;51.364;6.788;2022-10-31T00:18:14;12.80;;;5.30;;
9214;SDS011;4642;51.364;6.788;2022-10-31T00:20:40;10.63;;;4.80;;
9214;SDS011;4642;51.364;6.788;2022-10-31T00:23:06;7.30;;;4.13;;
9214;SDS011;4642;51.364;6.788;2022-10-31T00:25:36;12.47;;;5.10;;
9214;SDS011;4642;51.364;6.788;2022-10-31T00:28:03;10.83;;;5.33;;
9214;SDS011;4642;51.364;6.788;2022-10-31T00:30:30;11.17;;;5.10;;
9214;SDS011;4642;51.364;6.788;2022-10-31T00:32:56;12.20;;;4.57;;
9214;SDS011;4642;51.364;6.788;2022-10-31T00:35:21;14.97;;;4.77;;
9214;SDS011;4642;51.364;6.788;2022-10-31T00:37:47;13.07;;;5.00;;
9214;SDS011;4642;51.364;6.788;2022-10-31T00:40:12;9.93;;;5.03;;
9214;SDS011;4642;51.364;6.788;2022-10-31T00:42:41;7.07;;;5.33;;
9214;SDS011;4642;51.364;6.788;2022-10-31T00:45:09;12.37;;;5.30;;
9214;SDS011;4642;51.364;6.788;2022-10-31T00:47:35;7.13;;;4.73;;
9214;SDS011;4642;51.364;6.788;2022-10-31T00:50:01;12.63;;;4.90;;
9214;SDS011;4642;51.364;6.788;2022-10-31T00:52:28;12.13;;;6.03;;
9214;SDS011;4642;51.364;6.788;2022-10-31T00:54:53;15.63;;;5.33;;
9214;SDS011;4642;51.364;6.788;2022-10-31T00:57:19;17.33;;;5.63;;
9214;SDS011;4642;51.364;6.788;2022-10-31T00:59:44;12.43;;;5.37;;
9214;SDS011;4642;51.364;6.788;2022-10-31T01:02:10;8.07;;;5.30;;
9214;SDS011;4642;51.364;6.788;2022-10-31T01:04:35;9.03;;;5.53;;
9214;SDS011;4642;51.364;6.788;2022-10-31T01:07:00;10.77;;;5.63;;
9214;SDS011;4642;51.364;6.788;2022-10-31T01:09:26;10.60;;;5.37;;
9214;SDS011;4642;51.364;6.788;2022-10-31T01:11:52;10.33;;;5.57;;
9214;SDS011;4642;51.364;6.788;2022-10-31T01:14:17;13.67;;;6.47;;
9214;SDS011;4642;51.364;6.788;2022-10-31T01:16:42;15.97;;;5.57;;
9214;SDS011;4642;51.364;6.788;2022-10-31T01:19:08;8.73;;;5.73;;
9214;SDS011;4642;51.364;6.788;2022-10-31T01:21:34;10.17;;;4.90;;
9214;SDS011;4642;51.364;6.788;2022-10-31T01:23:59;15.10;;;5.57;;
9214;SDS011;4642;51.364;6.788;2022-10-31T01:26:28;13.00;;;5.83;;
9214;SDS011;4642;51.364;6.788;2022-10-31T01:28:56;12.13;;;5.80;;
9214;SDS011;4642;51.364;6.788;2022-10-31T01:31:25;15.27;;;5.50;;
9214;SDS011;4642;51.364;6.788;2022-10-31T01:33:52;9.83;;;5.30;;
9214;SDS011;4642;51.364;6.788;2022-10-31T01:36:22;9.63;;;4.50;;
9214;SDS011;4642;51.364;6.788;2022-10-31T01:39:00;13.97;;;5.07;;
9214;SDS011;4642;51.364;6.788;2022-10-31T01:41:30;9.00;;;5.10;;
9214;SDS011;4642;51.364;6.788;2022-10-31T01:43:59;10.20;;;5.73;;
9214;SDS011;4642;51.364;6.788;2022-10-31T01:46:52;9.53;;;5.43;;
9214;SDS011;4642;51.364;6.788;2022-10-31T01:51:57;8.60;;;4.97;;
9214;SDS011;4642;51.364;6.788;2022-10-31T01:54:29;10.70;;;5.43;;
9214;SDS011;4642;51.364;6.788;2022-10-31T01:56:59;11.63;;;5.00;;
9214;SDS011;4642;51.364;6.788;2022-10-31T01:59:28;9.63;;;4.97;;
9214;SDS011;4642;51.364;6.788;2022-10-31T02:01:57;11.40;;;5.13;;
9214;SDS011;4642;51.364;6.788;2022-10-31T02:04:23;15.00;;;5.43;;
9214;SDS011;4642;51.364;6.788;2022-10-31T02:09:19;10.10;;;5.33;;
9214;SDS011;4642;51.364;6.788;2022-10-31T02:11:48;10.60;;;5.63;;
9214;SDS011;4642;51.364;6.788;2022-10-31T02:14:24;11.93;;;5.47;;
9214;SDS011;4642;51.364;6.788;2022-10-31T02:16:53;17.47;;;4.80;;
9214;SDS011;4642;51.364;6.788;2022-10-31T02:19:21;11.30;;;5.20;;
9214;SDS011;4642;51.364;6.788;2022-10-31T02:22:03;11.57;;;6.27;;
9214;SDS011;4642;51.364;6.788;2022-10-31T02:33:30;11.37;;;6.00;;
9214;SDS011;4642;51.364;6.788;2022-10-31T02:36:11;14.77;;;5.90;;
9214;SDS011;4642;51.364;6.788;2022-10-31T02:38:56;17.50;;;6.20;;
9214;SDS011;4642;51.364;6.788;2022-10-31T02:44:28;11.80;;;5.60;;
9214;SDS011;4642;51.364;6.788;2022-10-31T02:47:22;15.00;;;5.50;;
9214;SDS011;4642;51.364;6.788;2022-10-31T02:50:00;13.90;;;5.50;;
9214;SDS011;4642;51.364;6.788;2022-10-31T02:52:36;10.23;;;5.90;;
9214;SDS011;4642;51.364;6.788;2022-10-31T02:57:53;9.60;;;5.20;;
9214;SDS011;4642;51.364;6.788;2022-10-31T03:00:22;9.03;;;5.07;;
9214;SDS011;4642;51.364;6.788;2022-10-31T03:05:45;11.10;;;5.37;;
9214;SDS011;4642;51.364;6.788;2022-10-31T03:11:05;13.47;;;5.73;;
9214;SDS011;4642;51.364;6.788;2022-10-31T03:16:13;14.53;;;5.13;;
9214;SDS011;4642;51.364;6.788;2022-10-31T03:18:53;9.83;;;5.13;;
9214;SDS011;4642;51.364;6.788;2022-10-31T03:21:32;11.07;;;5.27;;
9214;SDS011;4642;51.364;6.788;2022-10-31T03:24:09;8.67;;;5.17;;
9214;SDS011;4642;51.364;6.788;2022-10-31T03:26:36;11.97;;;6.03;;
9214;SDS011;4642;51.364;6.788;2022-10-31T03:29:08;12.00;;;5.43;;
9214;SDS011;4642;51.364;6.788;2022-10-31T03:31:45;11.00;;;5.00;;
9214;SDS011;4642;51.364;6.788;2022-10-31T03:34:17;14.93;;;5.40;;
9214;SDS011;4642;51.364;6.788;2022-10-31T03:36:44;11.53;;;5.53;;
9214;SDS011;4642;51.364;6.788;2022-10-31T03:39:13;9.13;;;5.07;;
9214;SDS011;4642;51.364;6.788;2022-10-31T03:41:42;11.90;;;5.87;;
9214;SDS011;4642;51.364;6.788;2022-10-31T03:44:12;11.13;;;5.00;;
9214;SDS011;4642;51.364;6.788;2022-10-31T03:46:41;9.77;;;5.40;;
9214;SDS011;4642;51.364;6.788;2022-10-31T03:49:08;15.23;;;5.30;;
9214;SDS011;4642;51.364;6.788;2022-10-31T03:59:45;13.13;;;5.97;;
9214;SDS011;4642;51.364;6.788;2022-10-31T04:02:16;12.63;;;5.33;;
9214;SDS011;4642;51.364;6.788;2022-10-31T04:04:46;10.03;;;5.07;;
9214;SDS011;4642;51.364;6.788;2022-10-31T04:07:13;11.50;;;5.90;;
9214;SDS011;4642;51.364;6.788;2022-10-31T04:09:41;8.50;;;5.33;;
9214;SDS011;4642;51.364;6.788;2022-10-31T04:12:09;11.97;;;6.40;;
9214;SDS011;4642;51.364;6.788;2022-10-31T04:14:40;9.53;;;5.43;;
9214;SDS011;4642;51.364;6.788;2022-10-31T04:17:09;10.53;;;6.60;;
9214;SDS011;4642;51.364;6.788;2022-10-31T04:19:38;11.10;;;5.40;;
9214;SDS011;4642;51.364;6.788;2022-10-31T04:22:04;9.50;;;5.87;;
9214;SDS011;4642;51.364;6.788;2022-10-31T04:24:29;9.33;;;5.60;;
9214;SDS011;4642;51.364;6.788;2022-10-31T04:26:55;10.03;;;5.63;;
9214;SDS011;4642;51.364;6.788;2022-10-31T04:29:20;13.77;;;5.60;;
9214;SDS011;4642;51.364;6.788;2022-10-31T04:31:46;15.13;;;5.50;;
9214;SDS011;4642;51.364;6.788;2022-10-31T04:34:11;10.77;;;4.90;;
9214;SDS011;4642;51.364;6.788;2022-10-31T04:36:37;10.13;;;4.90;;
9214;SDS011;4642;51.364;6.788;2022-10-31T04:39:02;12.30;;;4.87;;
9214;SDS011;4642;51.364;6.788;2022-10-31T04:41:28;9.57;;;5.07;;
9214;SDS011;4642;51.364;6.788;2022-10-31T04:43:53;8.13;;;4.57;;
9214;SDS011;4642;51.364;6.788;2022-10-31T04:46:19;14.20;;;5.17;;
9214;SDS011;4642;51.364;6.788;2022-10-31T04:48:44;8.73;;;5.03;;
9214;SDS011;4642;51.364;6.788;2022-10-31T04:51:10;8.87;;;4.90;;
9214;SDS011;4642;51.364;6.788;2022-10-31T04:53:36;9.67;;;4.73;;
9214;SDS011;4642;51.364;6.788;2022-10-31T04:56:01;10.10;;;5.17;;
9214;SDS011;4642;51.364;6.788;2022-10-31T04:58:27;9.70;;;5.07;;
9214;SDS011;4642;51.364;6.788;2022-10-31T05:00:53;11.90;;;5.53;;
9214;SDS011;4642;51.364;6.788;2022-10-31T05:03:19;12.07;;;5.10;;
9214;SDS011;4642;51.364;6.788;2022-10-31T05:05:45;16.23;;;5.17;;
9214;SDS011;4642;51.364;6.788;2022-10-31T05:08:11;12.93;;;4.80;;
9214;SDS011;4642;51.364;6.788;2022-10-31T05:10:36;9.20;;;5.83;;
9214;SDS011;4642;51.364;6.788;2022-10-31T05:13:02;14.50;;;5.27;;
9214;SDS011;4642;51.364;6.788;2022-10-31T05:15:29;14.37;;;4.97;;
9214;SDS011;4642;51.364;6.788;2022-10-31T05:17:55;14.40;;;5.07;;
9214;SDS011;4642;51.364;6.788;2022-10-31T05:20:22;9.93;;;5.47;;
9214;SDS011;4642;51.364;6.788;2022-10-31T05:22:52;7.77;;;5.27;;
9214;SDS011;4642;51.364;6.788;2022-10-31T05:25:20;12.80;;;5.23;;
9214;SDS011;4642;51.364;6.788;2022-10-31T05:27:47;10.57;;;6.07;;
9214;SDS011;4642;51.364;6.788;2022-10-31T05:30:15;11.40;;;5.47;;
9214;SDS011;4642;51.364;6.788;2022-10-31T05:32:44;9.43;;;5.30;;
9214;SDS011;4642;51.364;6.788;2022-10-31T05:35:14;10.23;;;4.97;;
9214;SDS011;4642;51.364;6.788;2022-10-31T05:37:41;10.97;;;4.93;;
9214;SDS011;4642;51.364;6.788;2022-10-31T05:40:07;9.70;;;5.03;;
9214;SDS011;4642;51.364;6.788;2022-10-31T05:42:34;18.20;;;5.57;;
9214;SDS011;4642;51.364;6.788;2022-10-31T05:45:00;8.07;;;4.80;;
9214;SDS011;4642;51.364;6.788;2022-10-31T05:47:26;13.17;;;5.30;;
9214;SDS011;4642;51.364;6.788;2022-10-31T05:49:51;10.63;;;5.30;;
9214;SDS011;4642;51.364;6.788;2022-10-31T05:52:17;6.57;;;4.83;;
9214;SDS011;4642;51.364;6.788;2022-10-31T05:54:43;15.60;;;5.00;;
9214;SDS011;4642;51.364;6.788;2022-10-31T05:57:09;10.27;;;5.60;;
9214;SDS011;4642;51.364;6.788;2022-10-31T05:59:34;12.47;;;5.40;;
9214;SDS011;4642;51.364;6.788;2022-10-31T06:02:00;12.43;;;5.10;;
9214;SDS011;4642;51.364;6.788;2022-10-31T06:04:26;10.03;;;4.80;;
9214;SDS011;4642;51.364;6.788;2022-10-31T06:06:51;9.20;;;5.43;;
9214;SDS011;4642;51.364;6.788;2022-10-31T06:09:17;8.70;;;5.27;;
9214;SDS011;4642;51.364;6.788;2022-10-31T06:11:42;10.23;;;4.40;;
9214;SDS011;4642;51.364;6.788;2022-10-31T06:14:08;11.63;;;4.93;;
9214;SDS011;4642;51.364;6.788;2022-10-31T06:16:33;12.33;;;5.00;;
9214;SDS011;4642;51.364;6.788;2022-10-31T06:18:59;15.93;;;5.10;;
9214;SDS011;4642;51.364;6.788;2022-10-31T06:21:24;11.10;;;5.73;;
9214;SDS011;4642;51.364;6.788;2022-10-31T06:23:50;6.90;;;4.97;;
9214;SDS011;4642;51.364;6.788;2022-10-31T06:26:16;8.17;;;5.10;;
9214;SDS011;4642;51.364;6.788;2022-10-31T06:28:41;12.17;;;5.70;;
9214;SDS011;4642;51.364;6.788;2022-10-31T06:31:07;12.40;;;5.07;;
9214;SDS011;4642;51.364;6.788;2022-10-31T06:33:32;9.57;;;4.77;;
9214;SDS011;4642;51.364;6.788;2022-10-31T06:35:58;11.90;;;5.20;;
9214;SDS011;4642;51.364;6.788;2022-10-31T06:38:25;13.70;;;5.63;;
9214;SDS011;4642;51.364;6.788;2022-10-31T06:40:51;12.97;;;5.50;;
9214;SDS011;4642;51.364;6.788;2022-10-31T06:43:17;11.43;;;6.17;;
9214;SDS011;4642;51.364;6.788;2022-10-31T06:45:42;9.00;;;4.93;;
9214;SDS011;4642;51.364;6.788;2022-10-31T06:48:08;15.37;;;5.67;;
9214;SDS011;4642;51.364;6.788;2022-10-31T06:50:33;11.57;;;5.40;;
9214;SDS011;4642;51.364;6.788;2022-10-31T06:52:59;8.13;;;5.10;;
9214;SDS011;4642;51.364;6.788;2022-10-31T06:55:25;11.77;;;4.67;;
9214;SDS011;4642;51.364;6.788;2022-10-31T06:57:51;11.40;;;5.20;;
9214;SDS011;4642;51.364;6.788;2022-10-31T07:00:21;13.10;;;5.00;;
9214;SDS011;4642;51.364;6.788;2022-10-31T07:02:54;14.70;;;4.93;;
9214;SDS011;4642;51.364;6.788;2022-10-31T07:05:19;9.80;;;4.83;;
9214;SDS011;4642;51.364;6.788;2022-10-31T07:07:45;8.40;;;5.17;;
9214;SDS011;4642;51.364;6.788;2022-10-31T07:10:10;11.13;;;5.30;;
9214;SDS011;4642;51.364;6.788;2022-10-31T07:12:36;10.00;;;5.53;;
9214;SDS011;4642;51.364;6.788;2022-10-31T07:15:01;13.63;;;5.10;;
9214;SDS011;4642;51.364;6.788;2022-10-31T07:17:27;15.80;;;5.87;;
9214;SDS011;4642;51.364;6.788;2022-10-31T07:19:53;8.97;;;5.60;;
9214;SDS011;4642;51.364;6.788;2022-10-31T07:22:18;7.87;;;5.13;;
9214;SDS011;4642;51.364;6.788;2022-10-31T07:24:43;9.47;;;5.33;;
9214;SDS011;4642;51.364;6.788;2022-10-31T07:27:09;11.33;;;5.37;;
9214;SDS011;4642;51.364;6.788;2022-10-31T07:29:34;11.90;;;5.37;;
9214;SDS011;4642;51.364;6.788;2022-10-31T07:32:00;13.03;;;4.90;;
9214;SDS011;4642;51.364;6.788;2022-10-31T07:34:26;9.67;;;5.20;;
9214;SDS011;4642;51.364;6.788;2022-10-31T07:36:53;10.47;;;6.03;;
9214;SDS011;4642;51.364;6.788;2022-10-31T07:39:19;8.13;;;5.03;;
9214;SDS011;4642;51.364;6.788;2022-10-31T07:41:44;9.63;;;4.70;;
9214;SDS011;4642;51.364;6.788;2022-10-31T07:44:10;7.20;;;4.63;;
9214;SDS011;4642;51.364;6.788;2022-10-31T07:46:35;7.30;;;4.70;;
9214;SDS011;4642;51.364;6.788;2022-10-31T07:49:01;11.87;;;5.40;;
9214;SDS011;4642;51.364;6.788;2022-10-31T07:51:26;11.47;;;5.17;;
9214;SDS011;4642;51.364;6.788;2022-10-31T07:53:52;11.67;;;5.47;;
9214;SDS011;4642;51.364;6.788;2022-10-31T07:56:17;13.27;;;5.40;;
9214;SDS011;4642;51.364;6.788;2022-10-31T07:58:43;11.50;;;5.60;;
9214;SDS011;4642;51.364;6.788;2022-10-31T08:01:08;12.67;;;6.00;;
9214;SDS011;4642;51.364;6.788;2022-10-31T08:03:34;12.60;;;5.77;;
9214;SDS011;4642;51.364;6.788;2022-10-31T08:05:59;10.53;;;5.80;;
9214;SDS011;4642;51.364;6.788;2022-10-31T08:08:25;10.87;;;5.63;;
9214;SDS011;4642;51.364;6.788;2022-10-31T08:10:53;12.37;;;5.67;;
9214;SDS011;4642;51.364;6.788;2022-10-31T08:13:18;9.03;;;5.37;;
9214;SDS011;4642;51.364;6.788;2022-10-31T08:15:44;9.87;;;4.93;;
9214;SDS011;4642;51.364;6.788;2022-10-31T08:18:14;11.27;;;5.60;;
9214;SDS011;4642;51.364;6.788;2022-10-31T08:20:41;9.90;;;4.43;;
9214;SDS011;4642;51.364;6.788;2022-10-31T08:23:08;11.97;;;5.60;;
9214;SDS011;4642;51.364;6.788;2022-10-31T08:25:35;8.93;;;5.63;;
9214;SDS011;4642;51.364;6.788;2022-10-31T08:28:01;9.37;;;6.07;;
9214;SDS011;4642;51.364;6.788;2022-10-31T08:30:28;11.60;;;5.33;;
9214;SDS011;4642;51.364;6.788;2022-10-31T08:32:59;12.10;;;5.57;;
9214;SDS011;4642;51.364;6.788;2022-10-31T08:35:26;8.57;;;5.03;;
9214;SDS011;4642;51.364;6.788;2022-10-31T08:37:55;10.53;;;5.17;;
9214;SDS011;4642;51.364;6.788;2022-10-31T08:40:22;11.53;;;5.03;;
9214;SDS011;4642;51.364;6.788;2022-10-31T08:42:55;7.43;;;4.97;;
9214;SDS011;4642;51.364;6.788;2022-10-31T08:45:22;7.83;;;5.20;;
9214;SDS011;4642;51.364;6.788;2022-10-31T08:47:47;8.50;;;5.33;;
9214;SDS011;4642;51.364;6.788;2022-10-31T08:50:13;7.47;;;5.17;;
9214;SDS011;4642;51.364;6.788;2022-10-31T08:52:38;14.17;;;5.70;;
9214;SDS011;4642;51.364;6.788;2022-10-31T08:55:04;11.27;;;6.20;;
9214;SDS011;4642;51.364;6.788;2022-10-31T08:57:30;10.03;;;5.60;;
9214;SDS011;4642;51.364;6.788;2022-10-31T08:59:55;14.63;;;6.60;;
9214;SDS011;4642;51.364;6.788;2022-10-31T09:02:21;10.57;;;7.00;;
9214;SDS011;4642;51.364;6.788;2022-10-31T09:04:46;16.37;;;7.83;;
9214;SDS011;4642;51.364;6.788;2022-10-31T09:07:12;9.50;;;6.67;;
9214;SDS011;4642;51.364;6.788;2022-10-31T09:09:37;18.23;;;9.43;;
9214;SDS011;4642;51.364;6.788;2022-10-31T09:12:03;16.67;;;8.67;;
9214;SDS011;4642;51.364;6.788;2022-10-31T09:14:28;15.43;;;6.83;;
9214;SDS011;4642;51.364;6.788;2022-10-31T09:16:54;12.53;;;7.33;;
9214;SDS011;4642;51.364;6.788;2022-10-31T09:19:19;12.40;;;7.20;;
9214;SDS011;4642;51.364;6.788;2022-10-31T09:21:45;17.57;;;10.50;;
9214;SDS011;4642;51.364;6.788;2022-10-31T09:24:10;17.67;;;10.33;;
9214;SDS011;4642;51.364;6.788;2022-10-31T09:26:36;18.90;;;11.30;;
9214;SDS011;4642;51.364;6.788;2022-10-31T09:29:01;20.00;;;11.07;;
9214;SDS011;4642;51.364;6.788;2022-10-31T09:31:27;23.60;;;9.77;;
9214;SDS011;4642;51.364;6.788;2022-10-31T09:33:53;24.17;;;10.77;;
9214;SDS011;4642;51.364;6.788;2022-10-31T09:36:19;28.83;;;11.03;;
9214;SDS011;4642;51.364;6.788;2022-10-31T09:38:44;21.07;;;11.70;;
9214;SDS011;4642;51.364;6.788;2022-10-31T09:43:53;23.83;;;11.80;;
9214;SDS011;4642;51.364;6.788;2022-10-31T09:46:54;21.23;;;10.70;;
9214;SDS011;4642;51.364;6.788;2022-10-31T09:49:34;22.67;;;11.80;;
9214;SDS011;4642;51.364;6.788;2022-10-31T09:52:14;28.37;;;13.83;;
9214;SDS011;4642;51.364;6.788;2022-10-31T09:54:45;25.83;;;13.93;;
9214;SDS011;4642;51.364;6.788;2022-10-31T09:57:18;33.23;;;13.90;;
9214;SDS011;4642;51.364;6.788;2022-10-31T09:59:49;28.07;;;12.50;;
9214;SDS011;4642;51.364;6.788;2022-10-31T10:05:10;28.37;;;14.00;;
9214;SDS011;4642;51.364;6.788;2022-10-31T10:07:41;30.00;;;14.77;;
9214;SDS011;4642;51.364;6.788;2022-10-31T10:10:38;33.73;;;15.50;;
9214;SDS011;4642;51.364;6.788;2022-10-31T10:18:52;30.97;;;13.97;;
9214;SDS011;4642;51.364;6.788;2022-10-31T10:29:34;26.87;;;12.17;;
9214;SDS011;4642;51.364;6.788;2022-10-31T10:32:09;26.97;;;13.73;;
9214;SDS011;4642;51.364;6.788;2022-10-31T10:34:45;24.00;;;12.33;;
9214;SDS011;4642;51.364;6.788;2022-10-31T10:37:27;24.40;;;11.97;;
9214;SDS011;4642;51.364;6.788;2022-10-31T10:45:48;22.10;;;12.80;;
9214;SDS011;4642;51.364;6.788;2022-10-31T10:48:43;24.80;;;12.13;;
9214;SDS011;4642;51.364;6.788;2022-10-31T10:51:31;17.13;;;10.87;;
9214;SDS011;4642;51.364;6.788;2022-10-31T10:54:39;23.97;;;12.53;;
9214;SDS011;4642;51.364;6.788;2022-10-31T10:59:46;22.67;;;11.33;;
9214;SDS011;4642;51.364;6.788;2022-10-31T11:02:16;22.50;;;12.27;;
9214;SDS011;4642;51.364;6.788;2022-10-31T11:04:45;24.53;;;12.53;;
9214;SDS011;4642;51.364;6.788;2022-10-31T11:07:14;19.63;;;10.50;;
9214;SDS011;4642;51.364;6.788;2022-10-31T11:09:40;20.10;;;10.30;;
9214;SDS011;4642;51.364;6.788;2022-10-31T11:12:23;24.83;;;11.83;;
9214;SDS011;4642;51.364;6.788;2022-10-31T11:14:58;24.50;;;12.60;;
9214;SDS011;4642;51.364;6.788;2022-10-31T11:17:39;29.47;;;11.87;;
9214;SDS011;4642;51.364;6.788;2022-10-31T11:22:36;25.23;;;11.10;;
9214;SDS011;4642;51.364;6.788;2022-10-31T11:25:22;22.63;;;12.03;;
9214;SDS011;4642;51.364;6.788;2022-10-31T11:30:49;21.67;;;11.47;;
9214;SDS011;4642;51.364;6.788;2022-10-31T11:33:19;22.00;;;10.43;;
9214;SDS011;4642;51.364;6.788;2022-10-31T11:35:52;23.00;;;10.93;;
9214;SDS011;4642;51.364;6.788;2022-10-31T11:38:19;20.13;;;10.90;;
9214;SDS011;4642;51.364;6.788;2022-10-31T11:41:03;15.87;;;10.37;;
9214;SDS011;4642;51.364;6.788;2022-10-31T11:43:36;17.77;;;8.40;;
9214;SDS011;4642;51.364;6.788;2022-10-31T11:46:15;19.70;;;9.60;;
9214;SDS011;4642;51.364;6.788;2022-10-31T11:48:46;17.67;;;10.27;;
9214;SDS011;4642;51.364;6.788;2022-10-31T11:51:20;15.67;;;9.90;;
9214;SDS011;4642;51.364;6.788;2022-10-31T11:53:51;19.57;;;8.90;;
9214;SDS011;4642;51.364;6.788;2022-10-31T11:56:17;16.97;;;8.90;;
9214;SDS011;4642;51.364;6.788;2022-10-31T11:58:43;14.60;;;7.97;;
9214;SDS011;4642;51.364;6.788;2022-10-31T12:01:23;14.87;;;8.90;;
9214;SDS011;4642;51.364;6.788;2022-10-31T12:03:57;15.33;;;8.40;;
9214;SDS011;4642;51.364;6.788;2022-10-31T12:06:35;16.47;;;7.50;;
9214;SDS011;4642;51.364;6.788;2022-10-31T12:09:02;15.33;;;7.60;;
9214;SDS011;4642;51.364;6.788;2022-10-31T12:11:43;15.53;;;7.13;;
9214;SDS011;4642;51.364;6.788;2022-10-31T12:14:28;11.40;;;5.80;;
9214;SDS011;4642;51.364;6.788;2022-10-31T12:17:15;17.07;;;6.63;;
9214;SDS011;4642;51.364;6.788;2022-10-31T12:25:23;14.80;;;4.97;;
9214;SDS011;4642;51.364;6.788;2022-10-31T12:31:00;10.67;;;4.80;;
9214;SDS011;4642;51.364;6.788;2022-10-31T12:42:37;9.23;;;4.20;;
9214;SDS011;4642;51.364;6.788;2022-10-31T12:45:14;9.03;;;4.30;;
9214;SDS011;4642;51.364;6.788;2022-10-31T12:53:27;14.20;;;4.53;;
9214;SDS011;4642;51.364;6.788;2022-10-31T12:59:00;12.17;;;3.87;;
9214;SDS011;4642;51.364;6.788;2022-10-31T13:01:30;9.77;;;3.70;;
9214;SDS011;4642;51.364;6.788;2022-10-31T13:04:04;12.10;;;4.03;;
9214;SDS011;4642;51.364;6.788;2022-10-31T13:06:41;12.30;;;3.70;;
9214;SDS011;4642;51.364;6.788;2022-10-31T13:09:26;12.63;;;3.97;;
9214;SDS011;4642;51.364;6.788;2022-10-31T13:12:02;10.80;;;3.53;;
9214;SDS011;4642;51.364;6.788;2022-10-31T13:14:35;12.73;;;3.57;;
9214;SDS011;4642;51.364;6.788;2022-10-31T13:17:06;11.23;;;3.80;;
9214;SDS011;4642;51.364;6.788;2022-10-31T13:19:43;7.37;;;3.03;;
9214;SDS011;4642;51.364;6.788;2022-10-31T13:30:02;9.43;;;3.67;;
9214;SDS011;4642;51.364;6.788;2022-10-31T13:32:37;7.83;;;3.13;;
9214;SDS011;4642;51.364;6.788;2022-10-31T13:35:41;9.33;;;3.20;;
9214;SDS011;4642;51.364;6.788;2022-10-31T13:38:19;11.67;;;3.97;;
9214;SDS011;4642;51.364;6.788;2022-10-31T13:40:59;11.00;;;3.40;;
9214;SDS011;4642;51.364;6.788;2022-10-31T13:43:50;6.97;;;2.93;;
9214;SDS011;4642;51.364;6.788;2022-10-31T13:46:36;5.37;;;3.00;;
9214;SDS011;4642;51.364;6.788;2022-10-31T13:51:51;11.93;;;3.00;;
9214;SDS011;4642;51.364;6.788;2022-10-31T13:54:31;7.60;;;3.30;;
9214;SDS011;4642;51.364;6.788;2022-10-31T13:56:58;12.23;;;3.07;;
9214;SDS011;4642;51.364;6.788;2022-10-31T13:59:28;8.00;;;3.13;;
9214;SDS011;4642;51.364;6.788;2022-10-31T14:01:56;11.33;;;3.13;;
9214;SDS011;4642;51.364;6.788;2022-10-31T14:04:46;7.53;;;3.33;;
9214;SDS011;4642;51.364;6.788;2022-10-31T14:07:17;10.97;;;2.80;;
9214;SDS011;4642;51.364;6.788;2022-10-31T14:14:48;6.77;;;2.77;;
9214;SDS011;4642;51.364;6.788;2022-10-31T14:17:20;8.13;;;3.10;;
9214;SDS011;4642;51.364;6.788;2022-10-31T14:19:56;7.57;;;2.93;;
9214;SDS011;4642;51.364;6.788;2022-10-31T14:22:46;5.13;;;2.60;;
9214;SDS011;4642;51.364;6.788;2022-10-31T14:25:29;9.40;;;2.80;;
9214;SDS011;4642;51.364;6.788;2022-10-31T14:27:58;5.33;;;2.70;;
9214;SDS011;4642;51.364;6.788;2022-10-31T14:30:25;11.27;;;2.97;;
9214;SDS011;4642;51.364;6.788;2022-10-31T14:32:59;6.53;;;2.63;;
9214;SDS011;4642;51.364;6.788;2022-10-31T14:35:29;10.40;;;2.83;;
9214;SDS011;4642;51.364;6.788;2022-10-31T14:44:10;7.20;;;3.13;;
9214;SDS011;4642;51.364;6.788;2022-10-31T14:52:05;5.97;;;3.03;;
9214;SDS011;4642;51.364;6.788;2022-10-31T14:54:33;6.23;;;2.33;;
9214;SDS011;4642;51.364;6.788;2022-10-31T14:57:05;8.27;;;3.27;;
9214;SDS011;4642;51.364;6.788;2022-10-31T14:59:37;7.43;;;3.10;;
9214;SDS011;4642;51.364;6.788;2022-10-31T15:05:22;7.20;;;3.03;;
9214;SDS011;4642;51.364;6.788;2022-10-31T15:07:55;4.67;;;2.50;;
9214;SDS011;4642;51.364;6.788;2022-10-31T15:10:26;6.57;;;2.83;;
9214;SDS011;4642;51.364;6.788;2022-10-31T15:13:07;7.10;;;2.80;;
9214;SDS011;4642;51.364;6.788;2022-10-31T15:15:44;11.63;;;3.53;;
9214;SDS011;4642;51.364;6.788;2022-10-31T15:18:17;8.00;;;3.07;;
9214;SDS011;4642;51.364;6.788;2022-10-31T15:20:45;5.53;;;2.40;;
9214;SDS011;4642;51.364;6.788;2022-10-31T15:23:20;7.97;;;3.27;;
9214;SDS011;4642;51.364;6.788;2022-10-31T15:25:57;7.77;;;3.07;;
9214;SDS011;4642;51.364;6.788;2022-10-31T15:28:24;9.27;;;2.70;;
9214;SDS011;4642;51.364;6.788;2022-10-31T15:30:55;9.13;;;3.07;;
9214;SDS011;4642;51.364;6.788;2022-10-31T15:33:24;7.23;;;2.70;;
9214;SDS011;4642;51.364;6.788;2022-10-31T15:35:57;7.40;;;3.10;;
9214;SDS011;4642;51.364;6.788;2022-10-31T15:38:25;7.07;;;3.23;;
9214;SDS011;4642;51.364;6.788;2022-10-31T15:40:58;9.57;;;3.80;;
9214;SDS011;4642;51.364;6.788;2022-10-31T15:43:35;7.03;;;3.07;;
9214;SDS011;4642;51.364;6.788;2022-10-31T15:46:04;6.93;;;3.37;;
9214;SDS011;4642;51.364;6.788;2022-10-31T15:48:33;6.17;;;3.03;;
9214;SDS011;4642;51.364;6.788;2022-10-31T15:51:00;8.57;;;3.30;;
9214;SDS011;4642;51.364;6.788;2022-10-31T15:53:30;14.63;;;3.70;;
9214;SDS011;4642;51.364;6.788;2022-10-31T15:56:02;6.50;;;3.10;;
9214;SDS011;4642;51.364;6.788;2022-10-31T15:58:31;13.67;;;2.97;;
9214;SDS011;4642;51.364;6.788;2022-10-31T16:00:59;7.60;;;3.83;;
9214;SDS011;4642;51.364;6.788;2022-10-31T16:03:30;6.63;;;2.83;;
9214;SDS011;4642;51.364;6.788;2022-10-31T16:05:58;5.23;;;2.90;;
9214;SDS011;4642;51.364;6.788;2022-10-31T16:10:51;10.77;;;3.47;;
9214;SDS011;4642;51.364;6.788;2022-10-31T16:13:18;7.90;;;3.53;;
9214;SDS011;4642;51.364;6.788;2022-10-31T16:15:48;6.47;;;3.23;;
9214;SDS011;4642;51.364;6.788;2022-10-31T16:18:19;6.53;;;3.03;;
9214;SDS011;4642;51.364;6.788;2022-10-31T16:20:48;4.57;;;3.17;;
9214;SDS011;4642;51.364;6.788;2022-10-31T16:23:17;7.50;;;3.33;;
9214;SDS011;4642;51.364;6.788;2022-10-31T16:25:45;9.43;;;3.50;;
9214;SDS011;4642;51.364;6.788;2022-10-31T16:28:14;3.80;;;2.87;;
9214;SDS011;4642;51.364;6.788;2022-10-31T16:30:45;9.63;;;3.70;;
9214;SDS011;4642;51.364;6.788;2022-10-31T16:33:45;11.10;;;3.80;;
9214;SDS011;4642;51.364;6.788;2022-10-31T16:38:56;8.07;;;3.10;;
9214;SDS011;4642;51.364;6.788;2022-10-31T16:41:22;6.90;;;3.57;;
9214;SDS011;4642;51.364;6.788;2022-10-31T16:43:49;7.60;;;3.27;;
9214;SDS011;4642;51.364;6.788;2022-10-31T16:46:19;7.63;;;3.10;;
9214;SDS011;4642;51.364;6.788;2022-10-31T16:48:48;6.75;;;3.45;;
9214;SDS011;4642;51.364;6.788;2022-10-31T16:51:13;9.68;;;4.10;;
9214;SDS011;4642;51.364;6.788;2022-10-31T16:53:39;8.13;;;3.37;;
9214;SDS011;4642;51.364;6.788;2022-10-31T16:56:05;6.93;;;3.27;;
9214;SDS011;4642;51.364;6.788;2022-10-31T16:58:36;7.70;;;3.20;;
9214;SDS011;4642;51.364;6.788;2022-10-31T17:01:04;10.27;;;3.40;;
9214;SDS011;4642;51.364;6.788;2022-10-31T17:03:31;6.70;;;2.90;;
9214;SDS011;4642;51.364;6.788;2022-10-31T17:05:57;6.07;;;3.40;;
9214;SDS011;4642;51.364;6.788;2022-10-31T17:08:22;7.30;;;3.33;;
9214;SDS011;4642;51.364;6.788;2022-10-31T17:10:50;9.10;;;3.27;;
9214;SDS011;4642;51.364;6.788;2022-10-31T17:13:19;8.20;;;2.93;;
9214;SDS011;4642;51.364;6.788;2022-10-31T17:15:50;10.90;;;3.33;;
9214;SDS011;4642;51.364;6.788;2022-10-31T17:18:18;8.40;;;3.13;;
9214;SDS011;4642;51.364;6.788;2022-10-31T17:20:44;6.03;;;3.27;;
9214;SDS011;4642;51.364;6.788;2022-10-31T17:23:11;9.35;;;3.63;;
9214;SDS011;4642;51.364;6.788;2022-10-31T17:25:38;8.53;;;3.63;;
9214;SDS011;4642;51.364;6.788;2022-10-31T17:28:05;7.77;;;3.00;;
9214;SDS011;4642;51.364;6.788;2022-10-31T17:30:31;9.37;;;3.50;;
9214;SDS011;4642;51.364;6.788;2022-10-31T17:32:58;8.93;;;2.77;;